createdAt,value
2017-05-24T00:01:17.863Z,0
2017-05-24T00:02:17.791Z,0
2017-05-24T00:03:17.730Z,0
2017-05-24T00:04:17.669Z,0
2017-05-24T00:05:17.605Z,0
2017-05-24T00:06:17.546Z,0
2017-05-24T00:07:17.479Z,0
2017-05-24T00:08:17.424Z,0
2017-05-24T00:09:17.382Z,0
2017-05-24T00:10:16.999Z,0
2017-05-24T00:11:17.230Z,0
2017-05-24T00:12:17.178Z,0
2017-05-24T00:13:17.111Z,0
2017-05-24T00:14:16.746Z,0
2017-05-24T00:15:16.985Z,0
2017-05-24T00:16:16.923Z,0
2017-05-24T00:17:16.266Z,0
2017-05-24T00:18:16.802Z,0
2017-05-24T00:19:16.442Z,0
2017-05-24T00:20:16.675Z,0
2017-05-24T00:21:16.614Z,0
2017-05-24T00:22:16.554Z,0
2017-05-24T00:23:16.493Z,0
2017-05-24T00:24:16.129Z,0
2017-05-24T00:25:16.366Z,0
2017-05-24T00:26:16.075Z,0
2017-05-24T00:27:16.240Z,0
2017-05-24T00:28:16.183Z,0
2017-05-24T00:29:16.123Z,0
2017-05-24T00:30:16.058Z,0
2017-05-24T00:31:15.993Z,0
2017-05-24T00:32:15.944Z,0
2017-05-24T00:33:15.870Z,0
2017-05-24T00:34:15.806Z,0
2017-05-24T00:35:15.743Z,0
2017-05-24T00:36:15.682Z,0
2017-05-24T00:37:15.771Z,0
2017-05-24T00:38:15.563Z,0
2017-05-24T00:39:15.201Z,0
2017-05-24T00:40:15.137Z,0
2017-05-24T00:41:15.377Z,0
2017-05-24T00:42:15.112Z,0
2017-05-24T00:43:15.248Z,0
2017-05-24T00:44:15.199Z,0
2017-05-24T00:45:15.126Z,0
2017-05-24T00:46:14.765Z,0
2017-05-24T00:47:14.702Z,0
2017-05-24T00:48:14.941Z,0
2017-05-24T00:49:14.886Z,0
2017-05-24T00:50:14.514Z,0
2017-05-24T00:51:14.759Z,0
2017-05-24T00:52:14.392Z,0
2017-05-24T00:53:14.635Z,0
2017-05-24T00:54:14.268Z,0
2017-05-24T00:55:14.206Z,0
2017-05-24T00:56:14.442Z,0
2017-05-24T00:57:14.085Z,0
2017-05-24T00:58:14.322Z,0
2017-05-24T00:59:14.264Z,0
2017-05-24T01:00:14.197Z,0
2017-05-24T01:01:14.132Z,0
2017-05-24T01:02:14.081Z,0
2017-05-24T01:03:14.016Z,0
2017-05-24T01:04:13.951Z,0
2017-05-24T01:05:13.590Z,0
2017-05-24T01:06:13.828Z,0
2017-05-24T01:07:13.766Z,0
2017-05-24T01:08:13.711Z,0
2017-05-24T01:09:13.640Z,0
2017-05-24T01:10:13.574Z,0
2017-05-24T01:11:13.516Z,0
2017-05-24T01:12:12.860Z,0
2017-05-24T01:13:13.694Z,0
2017-05-24T01:14:13.028Z,0
2017-05-24T01:15:13.272Z,0
2017-05-24T01:16:13.205Z,0
2017-05-24T01:17:12.542Z,0
2017-05-24T01:18:13.194Z,0
2017-05-24T01:19:13.018Z,0
2017-05-24T01:20:12.658Z,0
2017-05-24T01:21:12.896Z,0
2017-05-24T01:22:12.832Z,0
2017-05-24T01:23:12.875Z,0
2017-05-24T01:24:12.411Z,0
2017-05-24T01:25:12.666Z,0
2017-05-24T01:26:12.586Z,0
2017-05-24T01:27:12.530Z,0
2017-05-24T01:28:11.861Z,0
2017-05-24T01:29:12.407Z,0
2017-05-24T01:30:12.339Z,0
2017-05-24T01:31:12.282Z,0
2017-05-24T01:32:11.920Z,0
2017-05-24T01:33:11.860Z,0
2017-05-24T01:34:11.791Z,0
2017-05-24T01:35:12.031Z,0
2017-05-24T01:36:11.668Z,0
2017-05-24T01:37:11.902Z,0
2017-05-24T01:38:11.843Z,0
2017-05-24T01:39:11.483Z,0
2017-05-24T01:40:11.722Z,0
2017-05-24T01:41:11.357Z,0
2017-05-24T01:42:11.294Z,0
2017-05-24T01:43:11.534Z,0
2017-05-24T01:44:11.170Z,0
2017-05-24T01:45:11.409Z,0
2017-05-24T01:46:11.351Z,0
2017-05-24T01:47:10.984Z,0
2017-05-24T01:48:11.291Z,0
2017-05-24T01:49:11.162Z,0
2017-05-24T01:50:11.097Z,0
2017-05-24T01:51:11.049Z,0
2017-05-24T01:52:10.977Z,0
2017-05-24T01:53:10.617Z,0
2017-05-24T01:54:10.851Z,0
2017-05-24T01:55:10.489Z,0
2017-05-24T01:56:10.730Z,0
2017-05-24T01:57:10.366Z,0
2017-05-24T01:58:10.308Z,0
2017-05-24T01:59:10.244Z,0
2017-05-24T02:00:10.187Z,0
2017-05-24T02:01:10.115Z,0
2017-05-24T02:02:10.358Z,0
2017-05-24T02:03:10.293Z,0
2017-05-24T02:04:09.989Z,0
2017-05-24T02:05:10.170Z,0
2017-05-24T02:06:10.111Z,0
2017-05-24T02:07:09.771Z,0
2017-05-24T02:08:09.387Z,0
2017-05-24T02:09:09.922Z,0
2017-05-24T02:10:09.562Z,0
2017-05-24T02:11:09.506Z,0
2017-05-24T02:12:09.435Z,0
2017-05-24T02:13:09.678Z,0
2017-05-24T02:14:09.328Z,0
2017-05-24T02:15:09.548Z,0
2017-05-24T02:16:09.487Z,0
2017-05-24T02:17:09.126Z,0
2017-05-24T02:18:09.068Z,0
2017-05-24T02:19:09.303Z,0
2017-05-24T02:20:09.242Z,0
2017-05-24T02:21:08.878Z,0
2017-05-24T02:22:08.825Z,0
2017-05-24T02:23:09.056Z,0
2017-05-24T02:24:08.990Z,0
2017-05-24T02:25:08.636Z,0
2017-05-24T02:26:08.869Z,0
2017-05-24T02:27:08.809Z,0
2017-05-24T02:28:08.742Z,0
2017-05-24T02:29:08.692Z,0
2017-05-24T02:30:08.622Z,0
2017-05-24T02:31:08.564Z,0
2017-05-24T02:32:07.899Z,0
2017-05-24T02:33:08.435Z,0
2017-05-24T02:34:08.376Z,0
2017-05-24T02:35:08.311Z,0
2017-05-24T02:36:07.950Z,0
2017-05-24T02:37:08.184Z,0
2017-05-24T02:38:07.828Z,0
2017-05-24T02:39:07.762Z,0
2017-05-24T02:40:07.702Z,0
2017-05-24T02:41:07.936Z,0
2017-05-24T02:42:07.581Z,0
2017-05-24T02:43:07.817Z,0
2017-05-24T02:44:07.455Z,0
2017-05-24T02:45:07.689Z,0
2017-05-24T02:46:07.629Z,0
2017-05-24T02:47:07.574Z,0
2017-05-24T02:48:07.217Z,0
2017-05-24T02:49:07.446Z,0
2017-05-24T02:50:07.377Z,0
2017-05-24T02:51:07.018Z,0
2017-05-24T02:52:07.254Z,0
2017-05-24T02:53:06.898Z,0
2017-05-24T02:54:07.148Z,0
2017-05-24T02:55:06.797Z,0
2017-05-24T02:56:07.009Z,0
2017-05-24T02:57:06.948Z,0
2017-05-24T02:58:06.891Z,0
2017-05-24T02:59:06.820Z,0
2017-05-24T03:00:06.459Z,0
2017-05-24T03:01:06.699Z,0
2017-05-24T03:02:06.641Z,0
2017-05-24T03:03:06.276Z,0
2017-05-24T03:04:06.510Z,0
2017-05-24T03:05:06.155Z,0
2017-05-24T03:06:06.390Z,0
2017-05-24T03:07:06.024Z,0
2017-05-24T03:08:06.264Z,0
2017-05-24T03:09:05.901Z,0
2017-05-24T03:10:06.244Z,4
2017-05-24T03:11:06.075Z,4
2017-05-24T03:12:06.024Z,4
2017-05-24T03:13:05.652Z,4
2017-05-24T03:14:05.591Z,4
2017-05-24T03:15:05.830Z,4
2017-05-24T03:16:05.467Z,4
2017-05-24T03:17:05.705Z,4
2017-05-24T03:18:05.343Z,4
2017-05-24T03:19:05.286Z,4
2017-05-24T03:20:05.229Z,4
2017-05-24T03:21:05.157Z,4
2017-05-24T03:22:05.096Z,4
2017-05-24T03:23:05.335Z,4
2017-05-24T03:24:05.271Z,4
2017-05-24T03:25:04.914Z,4
2017-05-24T03:26:05.144Z,4
2017-05-24T03:27:05.089Z,4
2017-05-24T03:28:05.030Z,4
2017-05-24T03:29:04.965Z,0
2017-05-24T03:30:04.901Z,4
2017-05-24T03:31:04.840Z,4
2017-05-24T03:32:04.777Z,4
2017-05-24T03:33:04.416Z,4
2017-05-24T03:34:04.652Z,4
2017-05-24T03:35:04.632Z,8
2017-05-24T03:36:04.531Z,4
2017-05-24T03:37:04.165Z,4
2017-05-24T03:38:04.415Z,4
2017-05-24T03:39:04.353Z,4
2017-05-24T03:40:03.990Z,4
2017-05-24T03:41:03.917Z,4
2017-05-24T03:42:04.170Z,4
2017-05-24T03:43:04.096Z,4
2017-05-24T03:44:04.035Z,4
2017-05-24T03:45:03.977Z,8
2017-05-24T03:46:03.906Z,4
2017-05-24T03:47:03.847Z,4
2017-05-24T03:48:03.484Z,4
2017-05-24T03:49:03.138Z,4
2017-05-24T03:50:03.357Z,4
2017-05-24T03:51:03.599Z,4
2017-05-24T03:52:03.546Z,4
2017-05-24T03:53:03.479Z,4
2017-05-24T03:54:03.409Z,4
2017-05-24T03:55:03.351Z,4
2017-05-24T03:56:03.286Z,4
2017-05-24T03:57:02.924Z,4
2017-05-24T03:58:03.178Z,4
2017-05-24T03:59:03.102Z,4
2017-05-24T04:00:02.743Z,4
2017-05-24T04:01:02.679Z,4
2017-05-24T04:02:02.928Z,4
2017-05-24T04:03:02.858Z,4
2017-05-24T04:04:02.792Z,4
2017-05-24T04:05:02.727Z,4
2017-05-24T04:06:02.362Z,8
2017-05-24T04:07:02.606Z,8
2017-05-24T04:08:02.244Z,8
2017-05-24T04:09:02.479Z,8
2017-05-24T04:10:02.416Z,8
2017-05-24T04:11:02.365Z,8
2017-05-24T04:12:02.295Z,8
2017-05-24T04:13:02.236Z,8
2017-05-24T04:14:01.890Z,8
2017-05-24T04:15:02.126Z,8
2017-05-24T04:16:01.742Z,8
2017-05-24T04:17:01.983Z,8
2017-05-24T04:18:01.926Z,8
2017-05-24T04:19:01.858Z,8
2017-05-24T04:20:01.807Z,8
2017-05-24T04:21:01.732Z,4
2017-05-24T04:22:01.677Z,4
2017-05-24T04:23:01.616Z,4
2017-05-24T04:24:01.550Z,8
2017-05-24T04:25:01.242Z,8
2017-05-24T04:26:01.120Z,8
2017-05-24T04:27:01.366Z,8
2017-05-24T04:28:01.305Z,8
2017-05-24T04:29:00.938Z,8
2017-05-24T04:30:01.175Z,8
2017-05-24T04:31:01.118Z,8
2017-05-24T04:32:01.048Z,8
2017-05-24T04:33:00.994Z,8
2017-05-24T04:34:00.928Z,8
2017-05-24T04:35:00.866Z,8
2017-05-24T04:36:00.828Z,4
2017-05-24T04:37:00.436Z,4
2017-05-24T04:38:00.412Z,8
2017-05-24T04:39:00.619Z,8
2017-05-24T04:40:00.554Z,8
2017-05-24T04:41:00.490Z,8
2017-05-24T04:41:59.827Z,8
2017-05-24T04:43:00.374Z,8
2017-05-24T04:44:00.303Z,8
2017-05-24T04:44:59.948Z,4
2017-05-24T04:45:59.874Z,8
2017-05-24T04:47:00.114Z,8
2017-05-24T04:48:00.059Z,8
2017-05-24T04:48:59.993Z,8
2017-05-24T04:49:59.935Z,8
2017-05-24T04:50:59.862Z,12
2017-05-24T04:51:59.811Z,12
2017-05-24T04:52:59.743Z,12
2017-05-24T04:53:59.673Z,12
2017-05-24T04:54:59.615Z,8
2017-05-24T04:55:59.554Z,8
2017-05-24T04:56:59.487Z,8
2017-05-24T04:57:59.435Z,8
2017-05-24T04:58:59.378Z,8
2017-05-24T04:59:59.307Z,8
2017-05-24T05:00:59.243Z,8
2017-05-24T05:01:59.181Z,8
2017-05-24T05:02:59.130Z,12
2017-05-24T05:03:59.076Z,8
2017-05-24T05:04:58.997Z,12
2017-05-24T05:05:58.628Z,12
2017-05-24T05:06:58.865Z,8
2017-05-24T05:07:58.804Z,8
2017-05-24T05:08:58.754Z,8
2017-05-24T05:09:58.407Z,8
2017-05-24T05:10:58.467Z,4
2017-05-24T05:11:58.555Z,8
2017-05-24T05:12:58.192Z,8
2017-05-24T05:13:58.426Z,8
2017-05-24T05:14:58.071Z,8
2017-05-24T05:15:57.702Z,12
2017-05-24T05:16:57.941Z,8
2017-05-24T05:17:58.181Z,8
2017-05-24T05:18:57.820Z,8
2017-05-24T05:19:57.755Z,12
2017-05-24T05:20:58.149Z,8
2017-05-24T05:21:57.927Z,8
2017-05-24T05:22:57.576Z,8
2017-05-24T05:23:57.804Z,8
2017-05-24T05:24:57.743Z,8
2017-05-24T05:25:57.476Z,8
2017-05-24T05:26:57.620Z,8
2017-05-24T05:27:57.564Z,8
2017-05-24T05:28:57.493Z,8
2017-05-24T05:29:57.485Z,12
2017-05-24T05:30:57.364Z,12
2017-05-24T05:31:57.303Z,8
2017-05-24T05:32:57.239Z,12
2017-05-24T05:33:56.878Z,12
2017-05-24T05:34:57.114Z,12
2017-05-24T05:35:57.052Z,8
2017-05-24T05:36:56.699Z,8
2017-05-24T05:37:56.930Z,8
2017-05-24T05:38:56.563Z,8
2017-05-24T05:39:56.845Z,8
2017-05-24T05:40:56.736Z,8
2017-05-24T05:41:56.675Z,12
2017-05-24T05:42:56.617Z,12
2017-05-24T05:43:56.551Z,12
2017-05-24T05:44:56.543Z,12
2017-05-24T05:45:56.125Z,12
2017-05-24T05:46:56.365Z,8
2017-05-24T05:47:56.303Z,12
2017-05-24T05:48:55.341Z,12
2017-05-24T05:49:55.875Z,12
2017-05-24T05:50:56.114Z,8
2017-05-24T05:51:55.747Z,8
2017-05-24T05:52:55.888Z,12
2017-05-24T05:53:55.924Z,16
2017-05-24T05:54:55.563Z,16
2017-05-24T05:55:55.499Z,16
2017-05-24T05:56:55.435Z,16
2017-05-24T05:57:55.376Z,12
2017-05-24T05:58:55.309Z,16
2017-05-24T05:59:55.257Z,12
2017-05-24T06:00:55.484Z,12
2017-05-24T06:01:55.422Z,12
2017-05-24T06:02:55.362Z,12
2017-05-24T06:03:55.301Z,12
2017-05-24T06:04:55.235Z,12
2017-05-24T06:05:54.871Z,12
2017-05-24T06:06:55.110Z,16
2017-05-24T06:07:55.049Z,16
2017-05-24T06:08:54.684Z,12
2017-05-24T06:09:54.924Z,16
2017-05-24T06:10:54.854Z,16
2017-05-24T06:11:54.800Z,20
2017-05-24T06:12:54.735Z,16
2017-05-24T06:13:54.379Z,16
2017-05-24T06:14:54.606Z,20
2017-05-24T06:15:54.307Z,20
2017-05-24T06:16:53.878Z,16
2017-05-24T06:17:54.131Z,16
2017-05-24T06:18:54.357Z,16
2017-05-24T06:19:54.295Z,20
2017-05-24T06:20:54.229Z,20
2017-05-24T06:21:53.871Z,20
2017-05-24T06:22:53.845Z,20
2017-05-24T06:23:53.442Z,20
2017-05-24T06:24:53.722Z,16
2017-05-24T06:25:53.622Z,20
2017-05-24T06:26:54.055Z,20
2017-05-24T06:27:53.798Z,20
2017-05-24T06:28:53.131Z,20
2017-05-24T06:29:53.666Z,20
2017-05-24T06:30:53.610Z,20
2017-05-24T06:31:53.544Z,20
2017-05-24T06:32:53.479Z,24
2017-05-24T06:33:53.419Z,20
2017-05-24T06:34:53.356Z,24
2017-05-24T06:35:53.102Z,16
2017-05-24T06:36:53.224Z,16
2017-05-24T06:37:53.164Z,16
2017-05-24T06:38:52.803Z,16
2017-05-24T06:39:53.038Z,16
2017-05-24T06:40:52.778Z,16
2017-05-24T06:41:52.609Z,16
2017-05-24T06:42:52.848Z,20
2017-05-24T06:43:52.789Z,20
2017-05-24T06:44:52.428Z,20
2017-05-24T06:45:52.060Z,20
2017-05-24T06:46:52.595Z,20
2017-05-24T06:47:52.536Z,16
2017-05-24T06:48:52.178Z,16
2017-05-24T06:49:52.406Z,20
2017-05-24T06:50:52.057Z,16
2017-05-24T06:51:51.983Z,20
2017-05-24T06:52:52.225Z,20
2017-05-24T06:53:52.161Z,24
2017-05-24T06:54:52.101Z,20
2017-05-24T06:55:51.732Z,24
2017-05-24T06:56:51.976Z,24
2017-05-24T06:57:51.604Z,28
2017-05-24T06:58:51.247Z,32
2017-05-24T06:59:51.228Z,144
2017-05-24T07:00:51.415Z,184
2017-05-24T07:01:51.655Z,192
2017-05-24T07:02:51.292Z,196
2017-05-24T07:03:51.528Z,200
2017-05-24T07:04:51.466Z,204
2017-05-24T07:05:51.400Z,204
2017-05-24T07:06:51.077Z,200
2017-05-24T07:07:50.981Z,204
2017-05-24T07:08:51.218Z,200
2017-05-24T07:09:51.151Z,196
2017-05-24T07:10:50.792Z,196
2017-05-24T07:11:50.724Z,196
2017-05-24T07:12:50.665Z,192
2017-05-24T07:13:50.309Z,188
2017-05-24T07:14:50.543Z,184
2017-05-24T07:15:50.476Z,188
2017-05-24T07:16:50.741Z,188
2017-05-24T07:17:50.670Z,184
2017-05-24T07:18:50.592Z,188
2017-05-24T07:19:50.222Z,192
2017-05-24T07:20:50.461Z,192
2017-05-24T07:21:50.099Z,188
2017-05-24T07:22:50.336Z,188
2017-05-24T07:23:49.971Z,192
2017-05-24T07:24:49.967Z,188
2017-05-24T07:25:49.547Z,192
2017-05-24T07:26:49.495Z,192
2017-05-24T07:27:50.023Z,192
2017-05-24T07:28:49.963Z,188
2017-05-24T07:29:49.901Z,188
2017-05-24T07:30:49.534Z,192
2017-05-24T07:31:49.479Z,192
2017-05-24T07:32:49.713Z,192
2017-05-24T07:33:49.656Z,192
2017-05-24T07:34:49.592Z,188
2017-05-24T07:35:49.677Z,188
2017-05-24T07:36:49.462Z,184
2017-05-24T07:37:49.416Z,184
2017-05-24T07:38:49.036Z,188
2017-05-24T07:39:49.282Z,188
2017-05-24T07:40:49.364Z,184
2017-05-24T07:41:48.554Z,184
2017-05-24T07:42:49.095Z,180
2017-05-24T07:43:49.044Z,180
2017-05-24T07:44:48.988Z,180
2017-05-24T07:45:48.896Z,180
2017-05-24T07:46:48.239Z,180
2017-05-24T07:47:48.776Z,180
2017-05-24T07:48:48.729Z,180
2017-05-24T07:49:48.656Z,180
2017-05-24T07:50:48.605Z,180
2017-05-24T07:51:48.527Z,176
2017-05-24T07:52:48.173Z,176
2017-05-24T07:53:48.408Z,180
2017-05-24T07:54:48.042Z,184
2017-05-24T07:55:48.281Z,180
2017-05-24T07:56:48.221Z,176
2017-05-24T07:57:47.561Z,176
2017-05-24T07:58:47.795Z,176
2017-05-24T07:59:47.436Z,176
2017-05-24T08:00:47.972Z,176
2017-05-24T08:01:47.928Z,172
2017-05-24T08:02:47.844Z,176
2017-05-24T08:03:47.782Z,176
2017-05-24T08:04:47.722Z,172
2017-05-24T08:05:47.663Z,176
2017-05-24T08:06:47.595Z,172
2017-05-24T08:07:47.537Z,32
2017-05-24T08:08:47.477Z,36
2017-05-24T08:09:46.808Z,36
2017-05-24T08:10:47.350Z,40
2017-05-24T08:11:47.201Z,40
2017-05-24T08:12:47.225Z,40
2017-05-24T08:13:46.876Z,40
2017-05-24T08:14:47.101Z,40
2017-05-24T08:15:46.741Z,40
2017-05-24T08:16:46.674Z,44
2017-05-24T08:17:46.631Z,44
2017-05-24T08:18:46.855Z,44
2017-05-24T08:19:46.800Z,44
2017-05-24T08:20:46.729Z,40
2017-05-24T08:21:46.668Z,36
2017-05-24T08:22:46.613Z,36
2017-05-24T08:23:46.550Z,28
2017-05-24T08:24:46.489Z,32
2017-05-24T08:25:46.719Z,36
2017-05-24T08:26:46.499Z,40
2017-05-24T08:27:46.392Z,44
2017-05-24T08:28:46.196Z,40
2017-05-24T08:29:46.379Z,40
2017-05-24T08:30:46.256Z,40
2017-05-24T08:31:46.202Z,40
2017-05-24T08:32:46.130Z,44
2017-05-24T08:33:46.056Z,44
2017-05-24T08:34:45.562Z,48
2017-05-24T08:35:45.495Z,48
2017-05-24T08:36:45.437Z,48
2017-05-24T08:37:45.676Z,44
2017-05-24T08:38:45.325Z,40
2017-05-24T08:39:45.551Z,40
2017-05-24T08:40:45.187Z,40
2017-05-24T08:41:45.130Z,40
2017-05-24T08:42:45.396Z,32
2017-05-24T08:43:45.004Z,32
2017-05-24T08:44:45.239Z,32
2017-05-24T08:45:45.181Z,32
2017-05-24T08:46:45.112Z,32
2017-05-24T08:47:45.054Z,32
2017-05-24T08:48:44.992Z,32
2017-05-24T08:49:44.925Z,40
2017-05-24T08:50:44.872Z,40
2017-05-24T08:51:44.802Z,40
2017-05-24T08:52:44.754Z,40
2017-05-24T08:53:44.688Z,36
2017-05-24T08:54:44.627Z,36
2017-05-24T08:55:44.557Z,40
2017-05-24T08:56:44.194Z,44
2017-05-24T08:57:44.132Z,44
2017-05-24T08:58:44.393Z,44
2017-05-24T08:59:44.310Z,40
2017-05-24T09:00:44.647Z,40
2017-05-24T09:01:44.184Z,44
2017-05-24T09:02:44.129Z,44
2017-05-24T09:03:44.067Z,44
2017-05-24T09:04:43.999Z,44
2017-05-24T09:05:44.382Z,44
2017-05-24T09:06:43.882Z,40
2017-05-24T09:07:43.811Z,40
2017-05-24T09:08:43.903Z,44
2017-05-24T09:09:43.395Z,52
2017-05-24T09:10:43.721Z,52
2017-05-24T09:11:44.122Z,48
2017-05-24T09:12:43.296Z,48
2017-05-24T09:13:43.138Z,44
2017-05-24T09:14:43.374Z,48
2017-05-24T09:15:43.318Z,48
2017-05-24T09:16:43.279Z,48
2017-05-24T09:17:43.190Z,44
2017-05-24T09:18:43.441Z,44
2017-05-24T09:19:42.763Z,44
2017-05-24T09:20:43.303Z,52
2017-05-24T09:21:42.939Z,52
2017-05-24T09:22:42.875Z,48
2017-05-24T09:23:43.222Z,48
2017-05-24T09:24:42.748Z,48
2017-05-24T09:25:42.548Z,48
2017-05-24T09:26:42.631Z,48
2017-05-24T09:27:42.854Z,48
2017-05-24T09:28:42.755Z,48
2017-05-24T09:29:42.463Z,48
2017-05-24T09:30:42.593Z,52
2017-05-24T09:31:42.314Z,48
2017-05-24T09:32:42.256Z,48
2017-05-24T09:33:41.591Z,48
2017-05-24T09:34:41.832Z,44
2017-05-24T09:35:41.877Z,44
2017-05-24T09:36:41.700Z,40
2017-05-24T09:37:41.351Z,44
2017-05-24T09:38:41.882Z,44
2017-05-24T09:39:41.816Z,44
2017-05-24T09:40:41.854Z,44
2017-05-24T09:41:41.392Z,40
2017-05-24T09:42:41.331Z,44
2017-05-24T09:43:41.269Z,40
2017-05-24T09:44:41.506Z,40
2017-05-24T09:45:41.443Z,36
2017-05-24T09:46:41.382Z,36
2017-05-24T09:47:41.329Z,40
2017-05-24T09:48:41.258Z,44
2017-05-24T09:49:41.191Z,40
2017-05-24T09:50:41.587Z,36
2017-05-24T09:51:40.775Z,152
2017-05-24T09:52:41.004Z,184
2017-05-24T09:53:41.152Z,192
2017-05-24T09:54:40.881Z,188
2017-05-24T09:55:41.023Z,184
2017-05-24T09:56:40.758Z,184
2017-05-24T09:57:40.394Z,184
2017-05-24T09:58:40.333Z,180
2017-05-24T09:59:40.571Z,184
2017-05-24T10:00:40.956Z,188
2017-05-24T10:01:40.146Z,188
2017-05-24T10:02:40.382Z,184
2017-05-24T10:03:40.330Z,188
2017-05-24T10:04:40.264Z,188
2017-05-24T10:05:40.345Z,192
2017-05-24T10:06:39.835Z,192
2017-05-24T10:07:39.777Z,188
2017-05-24T10:08:40.015Z,184
2017-05-24T10:09:39.951Z,184
2017-05-24T10:10:39.883Z,188
2017-05-24T10:11:39.822Z,188
2017-05-24T10:12:39.766Z,184
2017-05-24T10:13:39.647Z,180
2017-05-24T10:14:39.650Z,180
2017-05-24T10:15:39.586Z,184
2017-05-24T10:16:39.211Z,184
2017-05-24T10:17:39.448Z,188
2017-05-24T10:18:39.394Z,188
2017-05-24T10:19:39.333Z,188
2017-05-24T10:20:39.301Z,184
2017-05-24T10:21:39.220Z,180
2017-05-24T10:22:39.139Z,184
2017-05-24T10:23:39.084Z,188
2017-05-24T10:24:38.725Z,192
2017-05-24T10:25:38.949Z,200
2017-05-24T10:26:38.889Z,192
2017-05-24T10:27:38.834Z,192
2017-05-24T10:28:38.767Z,196
2017-05-24T10:29:38.423Z,204
2017-05-24T10:30:39.142Z,208
2017-05-24T10:31:38.289Z,216
2017-05-24T10:32:38.220Z,216
2017-05-24T10:33:38.458Z,224
2017-05-24T10:34:38.092Z,216
2017-05-24T10:35:38.331Z,220
2017-05-24T10:36:38.271Z,212
2017-05-24T10:37:38.211Z,224
2017-05-24T10:38:37.844Z,212
2017-05-24T10:39:38.081Z,208
2017-05-24T10:40:38.075Z,204
2017-05-24T10:41:37.969Z,204
2017-05-24T10:42:37.601Z,204
2017-05-24T10:43:37.840Z,200
2017-05-24T10:44:37.787Z,192
2017-05-24T10:45:37.153Z,192
2017-05-24T10:46:37.650Z,192
2017-05-24T10:47:37.289Z,196
2017-05-24T10:48:37.526Z,192
2017-05-24T10:49:37.483Z,200
2017-05-24T10:50:37.102Z,200
2017-05-24T10:51:37.355Z,204
2017-05-24T10:52:36.680Z,212
2017-05-24T10:53:37.282Z,212
2017-05-24T10:54:37.169Z,220
2017-05-24T10:55:37.199Z,216
2017-05-24T10:56:37.035Z,216
2017-05-24T10:57:36.882Z,216
2017-05-24T10:58:36.920Z,216
2017-05-24T10:59:36.867Z,212
2017-05-24T11:00:36.862Z,212
2017-05-24T11:01:36.722Z,208
2017-05-24T11:02:36.884Z,212
2017-05-24T11:03:36.631Z,212
2017-05-24T11:04:36.543Z,204
2017-05-24T11:05:36.697Z,208
2017-05-24T11:06:36.413Z,64
2017-05-24T11:07:36.101Z,64
2017-05-24T11:08:36.006Z,64
2017-05-24T11:09:36.228Z,60
2017-05-24T11:10:36.766Z,188
2017-05-24T11:11:36.170Z,220
2017-05-24T11:12:36.044Z,228
2017-05-24T11:13:35.987Z,228
2017-05-24T11:14:35.923Z,220
2017-05-24T11:15:35.968Z,216
2017-05-24T11:16:35.515Z,212
2017-05-24T11:17:35.802Z,220
2017-05-24T11:18:35.675Z,216
2017-05-24T11:19:35.313Z,220
2017-05-24T11:20:35.850Z,224
2017-05-24T11:21:35.187Z,320
2017-05-24T11:22:35.433Z,224
2017-05-24T11:23:35.369Z,332
2017-05-24T11:24:35.303Z,224
2017-05-24T11:25:35.795Z,220
2017-05-24T11:26:35.219Z,220
2017-05-24T11:27:35.118Z,212
2017-05-24T11:28:35.058Z,216
2017-05-24T11:29:34.999Z,216
2017-05-24T11:30:35.231Z,208
2017-05-24T11:31:34.871Z,204
2017-05-24T11:32:34.829Z,204
2017-05-24T11:33:34.766Z,208
2017-05-24T11:34:34.690Z,220
2017-05-24T11:35:34.585Z,216
2017-05-24T11:36:34.289Z,212
2017-05-24T11:37:34.502Z,204
2017-05-24T11:38:34.457Z,204
2017-05-24T11:39:34.089Z,200
2017-05-24T11:40:34.577Z,196
2017-05-24T11:41:33.951Z,200
2017-05-24T11:42:34.600Z,200
2017-05-24T11:43:33.936Z,212
2017-05-24T11:44:34.171Z,216
2017-05-24T11:45:34.382Z,232
2017-05-24T11:46:34.138Z,228
2017-05-24T11:47:33.914Z,232
2017-05-24T11:48:33.558Z,268
2017-05-24T11:49:33.758Z,212
2017-05-24T11:50:33.462Z,212
2017-05-24T11:51:33.347Z,208
2017-05-24T11:52:32.974Z,212
2017-05-24T11:53:33.537Z,208
2017-05-24T11:54:33.158Z,204
2017-05-24T11:55:33.218Z,204
2017-05-24T11:56:33.027Z,200
2017-05-24T11:57:32.968Z,204
2017-05-24T11:58:32.618Z,200
2017-05-24T11:59:33.144Z,200
2017-05-24T12:00:33.398Z,196
2017-05-24T12:01:32.714Z,196
2017-05-24T12:02:32.665Z,192
2017-05-24T12:03:32.900Z,192
2017-05-24T12:04:32.828Z,192
2017-05-24T12:05:32.481Z,192
2017-05-24T12:06:32.724Z,188
2017-05-24T12:07:32.374Z,192
2017-05-24T12:08:32.593Z,192
2017-05-24T12:09:32.554Z,196
2017-05-24T12:10:32.729Z,192
2017-05-24T12:11:32.135Z,192
2017-05-24T12:12:32.072Z,184
2017-05-24T12:13:31.738Z,184
2017-05-24T12:14:31.926Z,184
2017-05-24T12:15:32.272Z,184
2017-05-24T12:16:32.090Z,184
2017-05-24T12:17:33.552Z,188
2017-05-24T12:18:32.997Z,188
2017-05-24T12:19:33.297Z,188
2017-05-24T12:20:34.192Z,192
2017-05-24T12:21:33.599Z,196
2017-05-24T12:22:34.394Z,200
2017-05-24T12:23:33.227Z,204
2017-05-24T12:24:33.482Z,220
2017-05-24T12:25:33.527Z,200
2017-05-24T12:26:33.019Z,196
2017-05-24T12:27:33.578Z,192
2017-05-24T12:28:33.019Z,192
2017-05-24T12:29:31.287Z,192
2017-05-24T12:30:31.724Z,188
2017-05-24T12:31:30.875Z,188
2017-05-24T12:32:30.801Z,180
2017-05-24T12:33:31.039Z,180
2017-05-24T12:34:30.680Z,176
2017-05-24T12:35:31.214Z,172
2017-05-24T12:36:30.851Z,168
2017-05-24T12:37:30.792Z,164
2017-05-24T12:38:30.450Z,164
2017-05-24T12:39:30.366Z,168
2017-05-24T12:40:30.303Z,172
2017-05-24T12:41:30.547Z,172
2017-05-24T12:42:30.480Z,172
2017-05-24T12:43:30.443Z,172
2017-05-24T12:44:30.361Z,176
2017-05-24T12:45:30.397Z,180
2017-05-24T12:46:30.243Z,176
2017-05-24T12:47:30.173Z,180
2017-05-24T12:48:30.118Z,184
2017-05-24T12:49:30.057Z,188
2017-05-24T12:50:44.943Z,188
2017-05-24T12:51:29.629Z,188
2017-05-24T12:52:29.866Z,188
2017-05-24T12:53:29.811Z,184
2017-05-24T12:54:29.461Z,184
2017-05-24T12:55:29.680Z,184
2017-05-24T12:56:29.634Z,180
2017-05-24T12:57:29.558Z,184
2017-05-24T12:58:29.508Z,184
2017-05-24T12:59:29.442Z,188
2017-05-24T13:00:29.623Z,184
2017-05-24T13:01:29.310Z,184
2017-05-24T13:02:28.947Z,184
2017-05-24T13:03:29.191Z,184
2017-05-24T13:04:28.837Z,180
2017-05-24T13:05:29.160Z,184
2017-05-24T13:06:29.205Z,184
2017-05-24T13:07:28.702Z,188
2017-05-24T13:08:28.883Z,188
2017-05-24T13:09:28.566Z,192
2017-05-24T13:10:28.852Z,188
2017-05-24T13:11:28.120Z,184
2017-05-24T13:12:28.638Z,192
2017-05-24T13:13:28.279Z,188
2017-05-24T13:14:28.210Z,184
2017-05-24T13:15:28.155Z,40
2017-05-24T13:16:28.082Z,44
2017-05-24T13:17:28.323Z,44
2017-05-24T13:18:28.264Z,44
2017-05-24T13:19:27.904Z,44
2017-05-24T13:20:28.141Z,40
2017-05-24T13:21:28.082Z,40
2017-05-24T13:22:28.016Z,44
2017-05-24T13:23:27.955Z,48
2017-05-24T13:24:27.894Z,60
2017-05-24T13:25:27.527Z,68
2017-05-24T13:26:27.643Z,92
2017-05-24T13:27:27.703Z,40
2017-05-24T13:28:27.651Z,36
2017-05-24T13:29:27.581Z,36
2017-05-24T13:30:26.923Z,36
2017-05-24T13:31:27.453Z,36
2017-05-24T13:32:27.095Z,40
2017-05-24T13:33:27.345Z,44
2017-05-24T13:34:27.277Z,48
2017-05-24T13:35:26.909Z,48
2017-05-24T13:36:26.996Z,56
2017-05-24T13:37:26.789Z,56
2017-05-24T13:38:26.438Z,172
2017-05-24T13:39:26.963Z,136
2017-05-24T13:40:26.599Z,120
2017-05-24T13:41:26.992Z,56
2017-05-24T13:42:26.479Z,52
2017-05-24T13:43:26.421Z,52
2017-05-24T13:44:25.756Z,48
2017-05-24T13:45:26.812Z,44
2017-05-24T13:46:26.289Z,36
2017-05-24T13:47:26.490Z,32
2017-05-24T13:48:26.456Z,32
2017-05-24T13:49:25.782Z,28
2017-05-24T13:50:25.979Z,24
2017-05-24T13:51:26.055Z,24
2017-05-24T13:52:26.322Z,24
2017-05-24T13:53:26.098Z,24
2017-05-24T13:54:26.055Z,28
2017-05-24T13:55:25.673Z,28
2017-05-24T13:56:25.612Z,32
2017-05-24T13:57:25.944Z,40
2017-05-24T13:58:25.789Z,40
2017-05-24T13:59:25.731Z,40
2017-05-24T14:00:25.656Z,36
2017-05-24T14:01:25.301Z,36
2017-05-24T14:02:25.536Z,32
2017-05-24T14:03:24.878Z,32
2017-05-24T14:04:25.114Z,28
2017-05-24T14:05:25.351Z,28
2017-05-24T14:06:25.289Z,28
2017-05-24T14:07:25.444Z,24
2017-05-24T14:08:24.576Z,28
2017-05-24T14:09:25.146Z,28
2017-05-24T14:10:25.344Z,28
2017-05-24T14:11:24.979Z,28
2017-05-24T14:12:24.914Z,28
2017-05-24T14:13:24.556Z,28
2017-05-24T14:14:24.491Z,28
2017-05-24T14:15:24.833Z,32
2017-05-24T14:16:24.367Z,32
2017-05-24T14:17:24.316Z,32